ěÝzenÝ letovÚho provozu ╚eskÚ republiky
Letiste: LKKB Aktualizace: 27.10.2020 00:57:24  UTC
 METAR LKKB 27.10. 01:00 ...
METAR LKKB 270100Z 25004KT 9999 -RA FEW035 OVC050 09/07 Q1009 RMK BLU=
 TAF LKKB 26.10. 23:00 ...
TAF LKKB 262300Z 2700/2800 24008KT 9999 SCT020 OVC030      TEMPO 2700/2710 8000 RA SCT010 OVC015      PROB30 TEMPO 2700/2707 4000 RA BR BKN006      BECMG 2712/2714 SCT030      BECMG 2716/2718 20006KT=